createdAt,value
2019-05-26T00:00:34.930Z,100823.81
2019-05-26T00:03:08.580Z,100819.87
2019-05-26T00:05:41.047Z,100822.50
2019-05-26T00:08:13.315Z,100815.93
2019-05-26T00:10:45.803Z,100816.70
2019-05-26T00:13:18.271Z,100814.98
2019-05-26T00:15:50.965Z,100815.29
2019-05-26T00:18:23.340Z,100814.74
2019-05-26T00:20:56.120Z,100817.08
2019-05-26T00:23:29.681Z,100814.02
2019-05-26T00:26:02.241Z,100815.19
2019-05-26T00:28:34.785Z,100805.47
2019-05-26T00:31:07.450Z,100810.30
2019-05-26T00:33:40.075Z,100806.47
2019-05-26T00:36:12.695Z,100816.55
2019-05-26T00:38:45.175Z,100813.21
2019-05-26T00:41:17.820Z,100810.75
2019-05-26T00:43:50.524Z,100818.03
2019-05-26T00:46:23.055Z,100819.06
2019-05-26T00:48:55.580Z,100814.47
2019-05-26T00:51:28.483Z,100821.70
2019-05-26T00:54:01.093Z,100816.75
2019-05-26T00:56:33.710Z,100812.55
2019-05-26T00:59:06.630Z,100816.11
2019-05-26T01:01:39.226Z,100811.91
2019-05-26T01:04:11.825Z,100818.69
2019-05-26T01:06:44.295Z,100819.81
2019-05-26T01:09:17.520Z,100811.09
2019-05-26T01:11:51.474Z,100814.75
2019-05-26T01:14:24.008Z,100816.46
2019-05-26T01:16:57.975Z,100810.64
2019-05-26T01:19:32.010Z,100810.64
2019-05-26T01:22:06.130Z,100804.98
2019-05-26T01:24:39.985Z,100802.81
2019-05-26T01:27:12.715Z,100808.83
2019-05-26T01:29:45.309Z,100821.17
2019-05-26T01:32:17.730Z,100822.75
2019-05-26T01:34:50.168Z,100821.99
2019-05-26T01:37:22.771Z,100814.75
2019-05-26T01:39:55.665Z,100809.59
2019-05-26T01:42:28.236Z,100808.27
2019-05-26T01:45:00.757Z,100812.98
2019-05-26T01:47:34.645Z,100812.33
2019-05-26T01:50:08.539Z,100814.03
2019-05-26T01:52:41.118Z,100812.16
2019-05-26T01:55:13.544Z,100818.25
2019-05-26T01:57:46.375Z,100814.95
2019-05-26T02:00:19.005Z,100814.34
2019-05-26T02:02:51.815Z,100810.09
2019-05-26T02:05:24.193Z,100805.97
2019-05-26T02:07:56.935Z,100808.02
2019-05-26T02:10:29.709Z,100795.61
2019-05-26T02:13:02.135Z,100796.16
2019-05-26T02:15:34.748Z,100804.06
2019-05-26T02:18:07.863Z,100812.82
2019-05-26T02:20:40.425Z,100807.84
2019-05-26T02:23:13.165Z,100805.12
2019-05-26T02:25:45.586Z,100807.65
2019-05-26T02:28:17.990Z,100801.92
2019-05-26T02:30:50.432Z,100800.50
2019-05-26T02:33:22.921Z,100792.50
2019-05-26T02:35:55.386Z,100806.98
2019-05-26T02:38:27.851Z,100806.92
2019-05-26T02:41:00.316Z,100804.65
2019-05-26T02:43:33.210Z,100804.09
2019-05-26T02:46:06.235Z,100811.13
2019-05-26T02:48:38.755Z,100806.33
2019-05-26T02:51:11.136Z,100805.67
2019-05-26T02:53:43.601Z,100806.42
2019-05-26T02:56:16.283Z,100807.84
2019-05-26T02:58:48.850Z,100805.89
2019-05-26T03:01:21.765Z,100803.34
2019-05-26T03:03:55.056Z,100794.06
2019-05-26T03:06:29.690Z,100792.18
2019-05-26T03:09:21.172Z,100796.88
2019-05-26T03:11:41.057Z,100784.74
2019-05-26T03:14:14.614Z,100791.98
2019-05-26T03:16:48.672Z,100790.20
2019-05-26T03:19:21.380Z,100789.89
2019-05-26T03:21:56.749Z,100786.23
2019-05-26T03:24:30.932Z,100790.08
2019-05-26T03:27:03.392Z,100800.05
2019-05-26T03:29:35.905Z,100791.88
2019-05-26T03:32:08.593Z,100793.37
2019-05-26T03:34:41.281Z,100794.28
2019-05-26T03:37:13.796Z,100798.52
2019-05-26T03:39:46.712Z,100798.81
2019-05-26T03:42:19.276Z,100796.53
2019-05-26T03:44:51.735Z,100797.00
2019-05-26T03:47:24.141Z,100793.31
2019-05-26T03:49:56.757Z,100799.80
2019-05-26T03:52:29.365Z,100793.19
2019-05-26T03:55:02.106Z,100789.77
2019-05-26T03:57:35.163Z,100799.17
2019-05-26T04:00:09.685Z,100793.05
2019-05-26T04:02:42.166Z,100797.19
2019-05-26T04:05:15.710Z,100795.58
2019-05-26T04:07:48.092Z,100799.22
2019-05-26T04:10:20.807Z,100806.09
2019-05-26T04:12:53.141Z,100802.03
2019-05-26T04:15:26.331Z,100799.78
2019-05-26T04:17:58.746Z,100802.95
2019-05-26T04:20:31.352Z,100807.19
2019-05-26T04:23:04.201Z,100801.42
2019-05-26T04:25:37.011Z,100801.92
2019-05-26T04:28:09.565Z,100797.47
2019-05-26T04:30:41.950Z,100795.78
2019-05-26T04:33:14.610Z,100802.80
2019-05-26T04:35:47.027Z,100802.64
2019-05-26T04:38:19.465Z,100802.87
2019-05-26T04:40:51.860Z,100800.92
2019-05-26T04:43:24.401Z,100797.01
2019-05-26T04:45:56.796Z,100793.44
2019-05-26T04:48:29.354Z,100793.00
2019-05-26T04:51:02.727Z,100791.44
2019-05-26T04:53:35.712Z,100787.22
2019-05-26T04:56:08.145Z,100784.98
2019-05-26T04:58:40.672Z,100783.52
2019-05-26T05:01:13.076Z,100784.41
2019-05-26T05:03:45.516Z,100788.11
2019-05-26T05:06:17.980Z,100784.53
2019-05-26T05:08:50.706Z,100779.22
2019-05-26T05:11:23.285Z,100786.72
2019-05-26T05:13:55.815Z,100787.81
2019-05-26T05:16:28.590Z,100784.87
2019-05-26T05:19:00.989Z,100789.23
2019-05-26T05:21:33.535Z,100795.16
2019-05-26T05:24:06.010Z,100793.28
2019-05-26T05:26:38.635Z,100794.62
2019-05-26T05:29:11.063Z,100793.02
2019-05-26T05:31:43.621Z,100797.44
2019-05-26T05:34:16.131Z,100799.91
2019-05-26T05:36:48.754Z,100791.34
2019-05-26T05:39:21.275Z,100792.85
2019-05-26T05:41:53.866Z,100801.67
2019-05-26T05:44:26.560Z,100795.77
2019-05-26T05:46:59.077Z,100796.50
2019-05-26T05:49:31.489Z,100798.42
2019-05-26T05:52:05.430Z,100799.02
2019-05-26T05:54:38.094Z,100799.23
2019-05-26T05:57:10.750Z,100790.08
2019-05-26T05:59:43.110Z,100789.63
2019-05-26T06:02:15.518Z,100792.38
2019-05-26T06:04:48.080Z,100795.84
2019-05-26T06:07:20.905Z,100789.50
2019-05-26T06:09:54.135Z,100798.63
2019-05-26T06:12:26.625Z,100788.44
2019-05-26T06:14:59.090Z,100789.14
2019-05-26T06:17:31.890Z,100791.61
2019-05-26T06:20:06.132Z,100796.56
2019-05-26T06:22:38.770Z,100799.00
2019-05-26T06:25:11.575Z,100792.60
2019-05-26T06:27:44.292Z,100793.97
2019-05-26T06:30:17.400Z,100794.52
2019-05-26T06:32:50.030Z,100790.95
2019-05-26T06:35:22.580Z,100794.08
2019-05-26T06:37:55.140Z,100789.77
2019-05-26T06:40:27.673Z,100786.30
2019-05-26T06:43:00.491Z,100795.73
2019-05-26T06:45:34.014Z,100792.11
2019-05-26T06:48:06.575Z,100788.89
2019-05-26T06:50:39.045Z,100793.93
2019-05-26T06:53:11.745Z,100786.40
2019-05-26T06:55:44.116Z,100787.22
2019-05-26T06:58:16.860Z,100783.63
2019-05-26T07:00:49.590Z,100783.07
2019-05-26T07:03:22.278Z,100783.02
2019-05-26T07:05:55.125Z,100785.36
2019-05-26T07:08:27.875Z,100773.42
2019-05-26T07:11:00.751Z,100781.05
2019-05-26T07:13:33.255Z,100782.06
2019-05-26T07:16:06.625Z,100771.78
2019-05-26T07:18:39.082Z,100772.12
2019-05-26T07:21:11.850Z,100773.73
2019-05-26T07:23:44.310Z,100769.19
2019-05-26T07:26:16.815Z,100765.71
2019-05-26T07:28:49.745Z,100771.09
2019-05-26T07:31:22.733Z,100773.41
2019-05-26T07:33:55.367Z,100772.98
2019-05-26T07:36:27.999Z,100770.44
2019-05-26T07:39:00.580Z,100775.22
2019-05-26T07:41:33.290Z,100776.91
2019-05-26T07:44:05.966Z,100770.66
2019-05-26T07:46:38.515Z,100766.38
2019-05-26T07:49:10.895Z,100769.88
2019-05-26T07:51:44.750Z,100774.33
2019-05-26T07:54:25.716Z,100770.80
2019-05-26T07:56:51.716Z,100769.81
2019-05-26T07:59:24.106Z,100766.20
2019-05-26T08:01:56.740Z,100765.27
2019-05-26T08:04:29.440Z,100758.02
2019-05-26T08:07:01.898Z,100766.43
2019-05-26T08:09:34.492Z,100766.02
2019-05-26T08:12:07.495Z,100762.85
2019-05-26T08:14:39.905Z,100758.56
2019-05-26T08:17:12.586Z,100757.35
2019-05-26T08:19:45.110Z,100759.84
2019-05-26T08:22:17.655Z,100754.80
2019-05-26T08:24:50.412Z,100757.33
2019-05-26T08:27:24.180Z,100756.84
2019-05-26T08:29:57.135Z,100748.89
2019-05-26T08:32:29.660Z,100751.23
2019-05-26T08:35:02.176Z,100741.16
2019-05-26T08:37:35.651Z,100728.14
2019-05-26T08:40:21.196Z,100739.77
2019-05-26T08:42:54.351Z,100738.29
2019-05-26T08:45:27.010Z,100732.24
2019-05-26T08:47:59.615Z,100740.46
2019-05-26T08:50:34.481Z,100742.91
2019-05-26T08:53:06.526Z,100739.03
2019-05-26T08:55:39.310Z,100742.80
2019-05-26T08:58:11.976Z,100732.93
2019-05-26T09:00:44.440Z,100724.13
2019-05-26T09:03:17.115Z,100725.80
2019-05-26T09:05:50.210Z,100717.18
2019-05-26T09:08:22.547Z,100727.94
2019-05-26T09:10:55.205Z,100727.12
2019-05-26T09:13:27.965Z,100711.73
2019-05-26T09:16:00.460Z,100717.16
2019-05-26T09:18:33.008Z,100706.17
2019-05-26T09:21:05.775Z,100712.53
2019-05-26T09:23:38.355Z,100708.36
2019-05-26T09:26:11.070Z,100696.75
2019-05-26T09:28:45.056Z,100706.31
2019-05-26T09:31:17.781Z,100711.32
2019-05-26T09:33:50.403Z,100710.94
2019-05-26T09:36:22.960Z,100707.05
2019-05-26T09:38:55.405Z,100707.65
2019-05-26T09:41:28.010Z,100708.61
2019-05-26T09:44:00.570Z,100700.23
2019-05-26T09:46:33.037Z,100699.22
2019-05-26T09:49:05.772Z,100704.53
2019-05-26T09:51:38.412Z,100702.87
2019-05-26T09:54:12.705Z,100698.33
2019-05-26T09:56:45.130Z,100700.89
2019-05-26T09:59:17.801Z,100697.23
2019-05-26T10:01:50.179Z,100705.84
2019-05-26T10:04:22.970Z,100699.34
2019-05-26T10:06:55.675Z,100697.06
2019-05-26T10:09:28.421Z,100692.39
2019-05-26T10:12:00.870Z,100693.97
2019-05-26T10:14:33.800Z,100692.95
2019-05-26T10:17:06.470Z,100685.20
2019-05-26T10:19:39.236Z,100685.90
2019-05-26T10:22:11.892Z,100683.63
2019-05-26T10:24:44.506Z,100677.75
2019-05-26T10:27:17.385Z,100684.60
2019-05-26T10:29:50.095Z,100675.38
2019-05-26T10:32:22.715Z,100673.96
2019-05-26T10:34:55.160Z,100665.77
2019-05-26T10:37:29.645Z,100665.62
2019-05-26T10:40:02.414Z,100665.52
2019-05-26T10:42:36.630Z,100668.09
2019-05-26T10:45:11.562Z,100655.99
2019-05-26T10:47:44.261Z,100656.20
2019-05-26T10:50:18.335Z,100661.76
2019-05-26T10:52:51.125Z,100656.53
2019-05-26T10:55:23.422Z,100644.27
2019-05-26T10:57:56.309Z,100643.95
2019-05-26T11:00:32.814Z,100634.27
2019-05-26T11:03:04.209Z,100631.55
2019-05-26T11:05:36.596Z,100627.20
2019-05-26T11:08:09.350Z,100622.00
2019-05-26T11:10:41.740Z,100622.20
2019-05-26T11:13:14.576Z,100612.55
2019-05-26T11:15:47.836Z,100624.47
2019-05-26T11:18:20.599Z,100619.46
2019-05-26T11:20:53.281Z,100609.75
2019-05-26T11:23:25.830Z,100612.59
2019-05-26T11:25:59.469Z,100612.66
2019-05-26T11:28:32.126Z,100599.58
2019-05-26T11:31:04.741Z,100592.84
2019-05-26T11:33:37.586Z,100583.03
2019-05-26T11:36:09.975Z,100589.81
2019-05-26T11:38:42.590Z,100580.59
2019-05-26T11:41:15.766Z,100580.18
2019-05-26T11:43:48.476Z,100587.82
2019-05-26T11:46:21.187Z,100586.13
2019-05-26T11:48:53.875Z,100579.36
2019-05-26T11:51:26.458Z,100577.20
2019-05-26T11:53:58.962Z,100574.75
2019-05-26T11:56:31.496Z,100565.09
2019-05-26T11:59:04.366Z,100559.90
2019-05-26T12:01:37.214Z,100568.36
2019-05-26T12:04:10.006Z,100561.84
2019-05-26T12:06:42.427Z,100560.94
2019-05-26T12:09:15.072Z,100551.52
2019-05-26T12:11:47.610Z,100543.73
2019-05-26T12:14:33.655Z,100544.98
2019-05-26T12:16:54.490Z,100545.95
2019-05-26T12:19:26.975Z,100539.40
2019-05-26T12:21:59.455Z,100540.68
2019-05-26T12:24:31.982Z,100536.45
2019-05-26T12:27:04.555Z,100536.16
2019-05-26T12:29:37.040Z,100525.55
2019-05-26T12:32:09.585Z,100524.33
2019-05-26T12:34:43.445Z,100514.42
2019-05-26T12:37:16.134Z,100506.98
2019-05-26T12:39:48.858Z,100511.64
2019-05-26T12:42:21.410Z,100511.06
2019-05-26T12:44:54.110Z,100510.51
2019-05-26T12:47:26.635Z,100507.23
2019-05-26T12:49:59.489Z,100498.19
2019-05-26T12:52:32.130Z,100501.47
2019-05-26T12:55:09.513Z,100491.80
2019-05-26T12:57:40.792Z,100490.52
2019-05-26T13:00:14.536Z,100492.88
2019-05-26T13:02:47.867Z,100485.13
2019-05-26T13:05:21.975Z,100482.61
2019-05-26T13:07:54.555Z,100483.17
2019-05-26T13:10:27.405Z,100479.89
2019-05-26T13:12:59.905Z,100479.13
2019-05-26T13:15:32.675Z,100486.05
2019-05-26T13:18:05.281Z,100484.30
2019-05-26T13:20:37.750Z,100483.12
2019-05-26T13:23:10.335Z,100478.77
2019-05-26T13:25:42.860Z,100477.28
2019-05-26T13:28:15.422Z,100466.99
2019-05-26T13:30:48.040Z,100466.89
2019-05-26T13:33:20.648Z,100466.03
2019-05-26T13:35:53.159Z,100467.22
2019-05-26T13:38:25.695Z,100469.61
2019-05-26T13:40:58.270Z,100470.66
2019-05-26T13:43:30.972Z,100465.84
2019-05-26T13:46:03.505Z,100470.16
2019-05-26T13:48:36.167Z,100453.81
2019-05-26T13:51:08.805Z,100456.67
2019-05-26T13:53:41.480Z,100456.63
2019-05-26T13:56:15.105Z,100442.09
2019-05-26T13:58:47.630Z,100448.32
2019-05-26T14:01:20.085Z,100446.84
2019-05-26T14:03:52.686Z,100440.05
2019-05-26T14:06:25.220Z,100436.83
2019-05-26T14:08:57.965Z,100443.41
2019-05-26T14:11:30.475Z,100443.27
2019-05-26T14:14:04.800Z,100440.14
2019-05-26T14:16:38.243Z,100432.36
2019-05-26T14:19:10.835Z,100436.06
2019-05-26T14:21:44.555Z,100426.98
2019-05-26T14:24:17.413Z,100430.37
2019-05-26T14:26:50.019Z,100426.75
2019-05-26T14:29:22.905Z,100425.93
2019-05-26T14:31:55.521Z,100425.03
2019-05-26T14:34:28.212Z,100419.52
2019-05-26T14:37:00.973Z,100421.84
2019-05-26T14:39:34.141Z,100407.89
2019-05-26T14:42:06.850Z,100411.29
2019-05-26T14:44:39.320Z,100412.30
2019-05-26T14:47:11.888Z,100408.67
2019-05-26T14:49:44.450Z,100400.89
2019-05-26T14:52:16.933Z,100395.78
2019-05-26T14:54:49.841Z,100397.84
2019-05-26T14:57:22.475Z,100398.61
2019-05-26T14:59:55.008Z,100397.30
2019-05-26T15:02:27.721Z,100403.59
2019-05-26T15:05:00.156Z,100398.66
2019-05-26T15:07:32.685Z,100397.69
2019-05-26T15:10:08.775Z,100396.73
2019-05-26T15:12:41.460Z,100395.80
2019-05-26T15:15:14.466Z,100391.77
2019-05-26T15:17:47.086Z,100391.52
2019-05-26T15:20:20.174Z,100393.42
2019-05-26T15:22:52.980Z,100388.87
2019-05-26T15:25:25.631Z,100387.22
2019-05-26T15:27:58.012Z,100390.11
2019-05-26T15:30:30.510Z,100385.66
2019-05-26T15:33:02.978Z,100390.80
2019-05-26T15:35:35.335Z,100392.16
2019-05-26T15:38:07.915Z,100391.95
2019-05-26T15:40:40.326Z,100380.84
2019-05-26T15:43:12.873Z,100370.83
2019-05-26T15:45:45.490Z,100371.55
2019-05-26T15:48:18.112Z,100369.17
2019-05-26T15:50:52.065Z,100363.27
2019-05-26T15:53:24.597Z,100366.77
2019-05-26T15:55:57.170Z,100365.80
2019-05-26T15:58:29.975Z,100362.30
2019-05-26T16:01:02.400Z,100359.91
2019-05-26T16:03:35.160Z,100357.34
2019-05-26T16:06:07.890Z,100363.15
2019-05-26T16:08:41.624Z,100358.91
2019-05-26T16:11:14.586Z,100356.78
2019-05-26T16:13:47.367Z,100361.78
2019-05-26T16:16:19.927Z,100360.78
2019-05-26T16:18:52.570Z,100367.65
2019-05-26T16:21:28.373Z,100364.81
2019-05-26T16:23:59.420Z,100374.83
2019-05-26T16:26:32.050Z,100368.83
2019-05-26T16:29:05.570Z,100369.92
2019-05-26T16:31:38.072Z,100361.52
2019-05-26T16:34:10.750Z,100361.98
2019-05-26T16:36:43.468Z,100357.94
2019-05-26T16:39:17.010Z,100354.68
2019-05-26T16:41:49.526Z,100357.16
2019-05-26T16:44:22.173Z,100357.36
2019-05-26T16:46:56.822Z,100358.91
2019-05-26T16:49:29.185Z,100349.53
2019-05-26T16:52:02.805Z,100359.63
2019-05-26T16:54:35.760Z,100353.25
2019-05-26T16:57:08.501Z,100353.88
2019-05-26T16:59:41.031Z,100353.09
2019-05-26T17:02:13.970Z,100359.13
2019-05-26T17:04:46.682Z,100359.92
2019-05-26T17:07:19.172Z,100361.66
2019-05-26T17:09:51.736Z,100351.61
2019-05-26T17:12:24.490Z,100356.15
2019-05-26T17:14:57.600Z,100356.67
2019-05-26T17:17:30.181Z,100350.38
2019-05-26T17:20:03.294Z,100345.15
2019-05-26T17:22:37.460Z,100342.16
2019-05-26T17:25:10.450Z,100345.15
2019-05-26T17:27:43.176Z,100336.30
2019-05-26T17:30:16.246Z,100341.31
2019-05-26T17:32:48.795Z,100338.17
2019-05-26T17:35:21.535Z,100342.91
2019-05-26T17:37:55.551Z,100340.11
2019-05-26T17:40:28.120Z,100333.50
2019-05-26T17:43:00.636Z,100331.55
2019-05-26T17:45:33.530Z,100338.23
2019-05-26T17:48:06.091Z,100335.25
2019-05-26T17:50:38.605Z,100336.77
2019-05-26T17:53:11.015Z,100341.64
2019-05-26T17:55:43.865Z,100338.64
2019-05-26T17:58:16.376Z,100336.30
2019-05-26T18:00:49.020Z,100342.47
2019-05-26T18:03:21.710Z,100345.27
2019-05-26T18:05:54.137Z,100340.05
2019-05-26T18:08:27.797Z,100338.20
2019-05-26T18:11:00.351Z,100343.20
2019-05-26T18:13:32.839Z,100343.84
2019-05-26T18:16:05.490Z,100338.65
2019-05-26T18:18:38.139Z,100340.47
2019-05-26T18:21:12.111Z,100337.11
2019-05-26T18:23:44.722Z,100341.09
2019-05-26T18:26:17.181Z,100344.92
2019-05-26T18:28:50.031Z,100350.06
2019-05-26T18:31:22.564Z,100345.06
2019-05-26T18:33:55.371Z,100349.84
2019-05-26T18:36:28.290Z,100350.11
2019-05-26T18:39:01.205Z,100349.08
2019-05-26T18:41:34.760Z,100349.02
2019-05-26T18:44:07.686Z,100348.84
2019-05-26T18:46:40.268Z,100348.61
2019-05-26T18:49:13.834Z,100352.06
2019-05-26T18:51:46.372Z,100351.22
2019-05-26T18:54:19.065Z,100350.34
2019-05-26T18:56:51.586Z,100351.97
2019-05-26T18:59:24.185Z,100350.92
2019-05-26T19:01:56.710Z,100356.91
2019-05-26T19:04:29.310Z,100355.70
2019-05-26T19:07:01.875Z,100356.99
2019-05-26T19:09:34.760Z,100356.95
2019-05-26T19:12:07.516Z,100357.24
2019-05-26T19:14:40.672Z,100355.52
2019-05-26T19:17:13.271Z,100354.34
2019-05-26T19:19:46.010Z,100362.66
2019-05-26T19:22:19.094Z,100365.61
2019-05-26T19:24:51.795Z,100363.10
2019-05-26T19:27:24.425Z,100359.27
2019-05-26T19:29:57.246Z,100355.06
2019-05-26T19:32:30.123Z,100352.07
2019-05-26T19:35:03.055Z,100356.39
2019-05-26T19:37:35.765Z,100357.84
2019-05-26T19:40:11.017Z,100353.32
2019-05-26T19:42:43.960Z,100356.30
2019-05-26T19:45:16.998Z,100352.47
2019-05-26T19:47:49.761Z,100351.58
2019-05-26T19:50:22.306Z,100342.89
2019-05-26T19:52:54.756Z,100348.02
2019-05-26T19:55:27.450Z,100351.00
2019-05-26T19:58:00.390Z,100349.98
2019-05-26T20:00:33.122Z,100348.45
2019-05-26T20:03:06.560Z,100345.25
2019-05-26T20:05:39.281Z,100345.05
2019-05-26T20:08:13.125Z,100341.21
2019-05-26T20:10:45.965Z,100340.68
2019-05-26T20:13:18.485Z,100340.15
2019-05-26T20:15:51.311Z,100339.94
2019-05-26T20:18:23.846Z,100348.73
2019-05-26T20:20:56.675Z,100342.02
2019-05-26T20:23:29.498Z,100343.99
2019-05-26T20:26:02.050Z,100340.31
2019-05-26T20:28:35.865Z,100339.62
2019-05-26T20:31:08.425Z,100337.59
2019-05-26T20:33:41.012Z,100336.58
2019-05-26T20:36:13.596Z,100330.56
2019-05-26T20:38:46.175Z,100333.47
2019-05-26T20:41:18.770Z,100332.45
2019-05-26T20:43:51.630Z,100328.09
2019-05-26T20:46:24.483Z,100328.25
2019-05-26T20:48:57.100Z,100328.25
2019-05-26T20:51:29.840Z,100326.38
2019-05-26T20:54:02.254Z,100321.37
2019-05-26T20:56:34.815Z,100318.34
2019-05-26T20:59:07.305Z,100318.98
2019-05-26T21:01:40.046Z,100319.29
2019-05-26T21:04:12.745Z,100318.27
2019-05-26T21:06:45.670Z,100310.23
2019-05-26T21:09:18.561Z,100315.98
2019-05-26T21:11:51.425Z,100311.94
2019-05-26T21:14:25.221Z,100307.02
2019-05-26T21:16:57.960Z,100309.92
2019-05-26T21:19:31.800Z,100314.28
2019-05-26T21:22:04.621Z,100308.02
2019-05-26T21:24:37.101Z,100310.08
2019-05-26T21:27:09.646Z,100315.75
2019-05-26T21:29:42.231Z,100308.64
2019-05-26T21:32:14.922Z,100310.80
2019-05-26T21:34:47.182Z,100309.16
2019-05-26T21:37:20.040Z,100311.81
2019-05-26T21:39:52.420Z,100308.05
2019-05-26T21:42:24.890Z,100305.11
2019-05-26T21:44:57.574Z,100302.45
2019-05-26T21:47:30.186Z,100299.17
2019-05-26T21:50:02.743Z,100304.84
2019-05-26T21:52:35.514Z,100301.55
2019-05-26T21:55:08.485Z,100308.88
2019-05-26T21:57:41.071Z,100308.24
2019-05-26T22:00:15.932Z,100303.48
2019-05-26T22:02:51.306Z,100297.97
2019-05-26T22:05:23.880Z,100300.35
2019-05-26T22:07:56.257Z,100296.06
2019-05-26T22:10:28.805Z,100306.73
2019-05-26T22:13:01.329Z,100308.96
2019-05-26T22:15:34.130Z,100302.02
2019-05-26T22:18:07.010Z,100299.42
2019-05-26T22:20:39.365Z,100295.63
2019-05-26T22:23:12.270Z,100290.52
2019-05-26T22:25:45.015Z,100288.88
2019-05-26T22:28:17.591Z,100284.13
2019-05-26T22:30:49.975Z,100284.66
2019-05-26T22:33:22.450Z,100280.36
2019-05-26T22:35:55.061Z,100278.27
2019-05-26T22:38:27.807Z,100269.51
2019-05-26T22:41:01.526Z,100262.79
2019-05-26T22:43:34.001Z,100267.66
2019-05-26T22:46:06.396Z,100268.17
2019-05-26T22:48:38.835Z,100266.24
2019-05-26T22:51:11.650Z,100267.80
2019-05-26T22:53:43.992Z,100265.30
2019-05-26T22:56:16.751Z,100263.26
2019-05-26T22:58:49.476Z,100265.57
2019-05-26T23:01:21.993Z,100265.57
2019-05-26T23:03:54.625Z,100263.16
2019-05-26T23:06:27.793Z,100263.44
2019-05-26T23:09:00.093Z,100258.89
2019-05-26T23:11:33.970Z,100253.02
2019-05-26T23:14:07.902Z,100259.16
2019-05-26T23:16:41.755Z,100261.37
2019-05-26T23:19:19.472Z,100256.95
2019-05-26T23:21:50.111Z,100262.86
2019-05-26T23:24:23.825Z,100259.26
2019-05-26T23:26:57.810Z,100256.88
2019-05-26T23:29:31.665Z,100257.77
2019-05-26T23:32:05.710Z,100253.18
2019-05-26T23:34:39.477Z,100256.70
2019-05-26T23:37:13.340Z,100254.66
2019-05-26T23:39:47.095Z,100249.77
2019-05-26T23:42:20.920Z,100256.63
2019-05-26T23:44:53.326Z,100245.11
2019-05-26T23:47:25.761Z,100250.77
2019-05-26T23:49:58.131Z,100253.78
2019-05-26T23:52:30.830Z,100244.55
2019-05-26T23:55:04.400Z,100247.33
2019-05-26T23:57:36.797Z,100247.92
